Time;durP1;ratioP1;P1;durP2;ratioP2;P2;SDS_P1;SDS_P2;PMS_P1;PMS_P2;Temp;Humidity;BMP_temperature;BMP_pressure;BME280_temperature;BME280_humidity;BME280_pressure;Samples;Min_cycle;Max_cycle;Signal;HPM_P1;HPM_P2
2023/08/02 00:01:04;;;;;;;1.45;0.80;;;;;;;18.77;100.00;95536.13;5018844;28;20718;-67
2023/08/02 00:03:30;;;;;;;2.15;0.63;;;;;;;18.76;100.00;95539.88;5018756;28;20226;-67
2023/08/02 00:05:59;;;;;;;0.57;0.52;;;;;;;19.08;100.00;95543.56;5018926;28;20202;-67
2023/08/02 00:08:26;;;;;;;0.60;0.60;;;;;;;18.85;100.00;95542.94;5018477;28;20202;-67
2023/08/02 00:13:13;;;;;;;0.60;0.52;;;;;;;19.24;100.00;95532.06;5054423;27;20574;-67
2023/08/02 00:15:39;;;;;;;0.85;0.65;;;;;;;19.11;100.00;95532.41;5054255;28;20211;-67
2023/08/02 00:18:06;;;;;;;1.25;0.77;;;;;;;19.09;100.00;95538.00;5054049;28;20207;-67
2023/08/02 00:20:32;;;;;;;1.88;0.70;;;;;;;19.14;100.00;95537.25;5053186;28;20207;-67
2023/08/02 00:22:59;;;;;;;1.45;0.80;;;;;;;19.05;100.00;95530.69;5033461;28;21282;-67
2023/08/02 00:25:25;;;;;;;0.77;0.60;;;;;;;19.11;100.00;95543.88;5034202;28;20603;-67
2023/08/02 00:27:52;;;;;;;1.80;0.68;;;;;;;19.06;100.00;95521.66;5032852;28;20353;-67
2023/08/02 00:30:20;;;;;;;1.63;0.80;;;;;;;19.13;100.00;95533.78;5033670;28;20217;-67
2023/08/02 00:32:47;;;;;;;1.05;0.63;;;;;;;19.11;100.00;95529.75;5033708;28;20236;-67
2023/08/02 00:35:14;;;;;;;7.38;0.70;;;;;;;18.91;100.00;95532.06;5033393;28;21540;-67
2023/08/02 00:37:41;;;;;;;0.93;0.60;;;;;;;18.80;100.00;95524.16;5032868;28;20205;-67
2023/08/02 00:40:09;;;;;;;1.45;0.95;;;;;;;18.71;100.00;95523.78;5033585;28;20202;-67
2023/08/02 00:42:36;;;;;;;2.80;0.68;;;;;;;18.64;100.00;95519.66;5033473;28;20733;-67
2023/08/02 00:45:03;;;;;;;1.05;0.70;;;;;;;18.76;100.00;95518.53;5032908;28;20701;-67
2023/08/02 00:47:31;;;;;;;0.60;0.60;;;;;;;18.89;100.00;95515.50;5032925;28;20295;-67
2023/08/02 00:49:58;;;;;;;0.75;0.60;;;;;;;18.53;100.00;95510.69;5033339;28;20585;-67
2023/08/02 00:52:25;;;;;;;1.00;0.70;;;;;;;18.66;100.00;95507.69;5032687;28;20228;-67
2023/08/02 00:54:51;;;;;;;2.20;0.93;;;;;;;18.41;100.00;95509.94;5033356;28;20212;-67
2023/08/02 00:57:18;;;;;;;1.40;0.70;;;;;;;18.37;100.00;95514.16;5032674;28;20201;-67
2023/08/02 00:59:44;;;;;;;1.60;0.80;;;;;;;18.32;100.00;95499.94;5032701;28;20217;-67
2023/08/02 01:02:11;;;;;;;0.70;0.70;;;;;;;18.29;100.00;95494.25;5033199;28;20229;-67
2023/08/02 01:04:39;;;;;;;1.10;0.95;;;;;;;18.49;100.00;95485.53;5033379;28;20198;-67
2023/08/02 01:07:12;;;;;;;1.40;0.93;;;;;;;18.49;100.00;95485.53;5031937;28;20201;-67
2023/08/02 01:09:44;;;;;;;0.73;0.70;;;;;;;18.37;100.00;95473.34;5033083;28;20193;-67
2023/08/02 01:12:11;;;;;;;4.72;0.85;;;;;;;17.95;100.00;95472.06;5032760;28;20229;-67
2023/08/02 01:14:42;;;;;;;0.93;0.75;;;;;;;18.21;100.00;95466.13;5033010;28;20324;-67
2023/08/02 01:17:09;;;;;;;2.13;0.63;;;;;;;18.06;100.00;95467.69;5032159;28;20624;-67
2023/08/02 01:19:35;;;;;;;0.77;0.60;;;;;;;17.60;100.00;95467.16;5033008;28;20204;-67
2023/08/02 01:22:04;;;;;;;1.02;0.73;;;;;;;17.80;100.00;95468.31;5032449;28;20222;-67
2023/08/02 01:24:33;;;;;;;1.30;0.90;;;;;;;17.84;100.00;95462.25;5019382;28;20206;-67
2023/08/02 01:27:05;;;;;;;0.80;0.70;;;;;;;17.87;100.00;95469.78;5018773;28;20198;-67
2023/08/02 01:29:33;;;;;;;0.68;0.65;;;;;;;17.79;100.00;95458.69;5020263;28;20206;-67
2023/08/02 01:32:02;;;;;;;1.20;0.70;;;;;;;17.81;100.00;95456.63;5019420;28;20241;-67
2023/08/02 01:34:30;;;;;;;4.22;0.80;;;;;;;17.63;100.00;95464.00;5019408;28;20202;-67
2023/08/02 01:36:56;;;;;;;0.75;0.68;;;;;;;17.60;100.00;95462.59;5018706;28;20202;-67
2023/08/02 01:39:24;;;;;;;1.40;0.90;;;;;;;17.62;100.00;95460.53;5019073;28;20209;-67
2023/08/02 01:41:51;;;;;;;0.85;0.57;;;;;;;17.41;100.00;95453.22;5019057;28;20228;-67
2023/08/02 01:44:17;;;;;;;1.25;0.60;;;;;;;17.30;100.00;95445.28;5019056;28;20198;-67
2023/08/02 01:46:44;;;;;;;0.55;0.50;;;;;;;17.24;100.00;95447.00;5018834;28;20202;-67
2023/08/02 01:49:10;;;;;;;4.22;0.60;;;;;;;17.21;100.00;95458.09;5018215;28;20213;-67
2023/08/02 01:51:37;;;;;;;1.08;0.70;;;;;;;17.17;100.00;95454.28;5018646;28;20287;-67
2023/08/02 01:54:04;;;;;;;1.20;0.70;;;;;;;17.14;100.00;95449.44;5018834;28;20255;-67
2023/08/02 01:56:31;;;;;;;1.73;0.80;;;;;;;17.36;100.00;95433.66;5018548;28;20682;-67
2023/08/02 01:58:58;;;;;;;1.83;0.60;;;;;;;17.06;100.00;95437.56;5018261;28;20198;-67
2023/08/02 02:01:24;;;;;;;0.95;0.80;;;;;;;17.01;100.00;95437.44;5019072;28;20222;-67
2023/08/02 02:03:51;;;;;;;1.48;0.68;;;;;;;16.96;100.00;95440.81;5018622;28;20198;-67
2023/08/02 02:06:17;;;;;;;1.23;0.73;;;;;;;17.05;100.00;95430.59;5018360;28;20686;-67
2023/08/02 02:08:44;;;;;;;1.50;0.80;;;;;;;16.97;100.00;95433.63;5018349;28;20202;-67
2023/08/02 02:11:10;;;;;;;1.38;0.80;;;;;;;17.05;100.00;95417.31;5018691;28;20316;-67
2023/08/02 02:13:38;;;;;;;1.60;0.80;;;;;;;17.15;100.00;95408.44;5018375;28;20701;-67
2023/08/02 02:16:05;;;;;;;0.68;0.65;;;;;;;17.01;100.00;95410.84;5018469;28;20217;-67
2023/08/02 02:18:31;;;;;;;2.03;1.10;;;;;;;17.03;100.00;95414.88;5018093;28;20583;-67
2023/08/02 02:20:58;;;;;;;1.35;0.77;;;;;;;17.07;100.00;95409.88;5017719;28;20217;-67
2023/08/02 02:23:24;;;;;;;1.45;1.10;;;;;;;17.01;100.00;95410.84;5018243;28;20674;-67
2023/08/02 02:25:51;;;;;;;1.27;0.73;;;;;;;17.06;100.00;95406.41;5018444;28;20213;-67
2023/08/02 02:28:19;;;;;;;1.80;0.68;;;;;;;17.08;100.00;95405.13;5017406;28;20268;-67
2023/08/02 02:30:47;;;;;;;6.65;0.90;;;;;;;17.28;100.00;95399.41;5018221;28;20212;-67
2023/08/02 02:33:13;;;;;;;1.38;1.23;;;;;;;16.99;100.00;95410.25;5018640;28;20234;-67
2023/08/02 02:35:40;;;;;;;1.58;0.77;;;;;;;16.93;100.00;95411.19;5016740;28;20208;-67
2023/08/02 02:38:06;;;;;;;1.15;0.85;;;;;;;16.93;100.00;95397.88;5017123;28;20202;-67
2023/08/02 02:40:33;;;;;;;3.33;1.85;;;;;;;16.90;100.00;95409.78;5016086;28;20190;-67
2023/08/02 02:42:59;;;;;;;5.95;1.13;;;;;;;16.88;100.00;95405.75;5018110;28;20198;-67
2023/08/02 02:45:26;;;;;;;2.85;0.90;;;;;;;16.81;100.00;95407.75;5017473;28;20202;-67
2023/08/02 02:47:54;;;;;;;3.90;1.02;;;;;;;17.02;100.00;95388.47;5017141;28;20553;-67
2023/08/02 02:50:21;;;;;;;1.70;0.90;;;;;;;16.83;100.00;95395.03;5018169;28;20546;-67
2023/08/02 02:52:47;;;;;;;2.25;0.98;;;;;;;16.86;100.00;95397.22;5017227;28;20265;-67
2023/08/02 02:55:14;;;;;;;2.80;0.98;;;;;;;16.85;100.00;95409.72;5017663;28;20202;-67
2023/08/02 02:57:40;;;;;;;1.33;1.23;;;;;;;16.97;100.00;95396.34;5017017;28;20597;-67
2023/08/02 03:00:08;;;;;;;2.97;0.85;;;;;;;17.11;100.00;95391.34;5017315;28;20205;-67
2023/08/02 03:02:35;;;;;;;3.45;0.90;;;;;;;16.88;100.00;95379.97;5017320;28;20218;-67
2023/08/02 03:05:02;;;;;;;1.60;0.80;;;;;;;17.08;100.00;95376.88;5017636;28;20268;-67
2023/08/02 03:07:29;;;;;;;1.40;1.00;;;;;;;16.92;100.00;95375.00;5016659;28;20210;-67
2023/08/02 03:09:56;;;;;;;1.30;0.70;;;;;;;16.92;100.00;95367.81;5017251;28;20293;-67
2023/08/02 03:12:23;;;;;;;1.73;0.50;;;;;;;16.97;100.00;95375.06;5017191;28;20241;-67
2023/08/02 03:14:49;;;;;;;1.58;1.10;;;;;;;16.87;100.00;95366.91;5017354;28;20202;-67
2023/08/02 03:17:16;;;;;;;1.38;0.93;;;;;;;16.80;100.00;95371.53;5016388;28;20216;-67
2023/08/02 03:19:42;;;;;;;1.92;0.93;;;;;;;16.77;100.00;95370.16;5017090;28;20212;-67
2023/08/02 03:22:10;;;;;;;2.28;1.13;;;;;;;17.01;100.00;95350.41;5016780;28;20611;-67
2023/08/02 03:24:37;;;;;;;2.22;0.82;;;;;;;16.67;100.00;95358.50;5016779;28;20216;-67
2023/08/02 03:27:04;;;;;;;1.63;0.68;;;;;;;16.73;100.00;95341.59;5016105;28;20208;-67
2023/08/02 03:29:30;;;;;;;1.77;0.90;;;;;;;16.65;100.00;95349.97;5017060;28;20971;-67
2023/08/02 03:31:57;;;;;;;1.42;1.05;;;;;;;16.61;100.00;95348.78;5016801;28;20228;-67
2023/08/02 03:34:23;;;;;;;2.13;1.02;;;;;;;16.55;100.00;95339.91;5016881;28;20555;-67
2023/08/02 03:36:50;;;;;;;1.80;0.90;;;;;;;16.59;100.00;95341.06;5017135;28;20202;-67
2023/08/02 03:39:17;;;;;;;1.85;1.05;;;;;;;16.79;100.00;95343.31;5016127;28;20209;-67
2023/08/02 03:41:44;;;;;;;2.33;1.30;;;;;;;16.55;100.00;95328.47;5016546;28;20232;-67
2023/08/02 03:44:11;;;;;;;1.88;1.17;;;;;;;16.55;100.00;95334.59;5017182;28;20201;-67
2023/08/02 03:46:37;;;;;;;2.80;0.98;;;;;;;16.51;100.00;95316.69;5016757;28;20601;-67
2023/08/02 03:49:04;;;;;;;3.08;1.73;;;;;;;16.54;100.00;95305.56;5015605;28;20210;-67
2023/08/02 03:51:30;;;;;;;2.30;1.50;;;;;;;16.60;100.00;95300.13;5017165;28;20225;-67
2023/08/02 03:53:57;;;;;;;3.72;1.10;;;;;;;16.64;100.00;95290.63;5016651;28;20226;-67
2023/08/02 03:56:25;;;;;;;2.95;1.17;;;;;;;16.91;100.00;95290.88;5016031;28;20205;-67
2023/08/02 03:58:51;;;;;;;3.85;1.23;;;;;;;16.73;100.00;95296.38;5015514;28;20218;-67
2023/08/02 04:01:18;;;;;;;2.38;1.20;;;;;;;16.73;100.00;95304.38;5017249;28;20225;-67
2023/08/02 04:03:45;;;;;;;2.53;1.00;;;;;;;16.79;100.00;95309.53;5016327;28;20197;-67
2023/08/02 04:06:11;;;;;;;1.25;0.90;;;;;;;16.67;100.00;95310.63;5016414;28;20216;-67
2023/08/02 04:08:38;;;;;;;1.85;1.10;;;;;;;16.70;100.00;95320.78;5015862;28;20206;-67
2023/08/02 04:11:05;;;;;;;1.80;1.33;;;;;;;16.73;100.00;95321.13;5016289;28;20348;-67
2023/08/02 04:13:33;;;;;;;2.80;1.70;;;;;;;17.05;100.00;95314.28;5016758;28;20255;-67
2023/08/02 04:15:59;;;;;;;4.40;1.88;;;;;;;16.85;100.00;95316.59;5016293;28;20206;-67
2023/08/02 04:18:26;;;;;;;2.45;1.55;;;;;;;16.93;100.00;95310.88;5016124;28;20202;-67
2023/08/02 04:20:52;;;;;;;3.78;1.63;;;;;;;16.89;100.00;95309.75;5015904;28;20677;-67
2023/08/02 04:23:19;;;;;;;3.40;1.42;;;;;;;16.93;100.00;95299.41;5016101;28;20209;-67
2023/08/02 04:25:45;;;;;;;3.00;1.48;;;;;;;17.07;100.00;95290.09;5015839;28;20569;-67
2023/08/02 04:28:12;;;;;;;3.85;1.98;;;;;;;17.11;100.00;95284.84;5015691;28;20202;-67
2023/08/02 04:30:40;;;;;;;1.95;1.27;;;;;;;17.37;100.00;95280.81;5016600;28;20202;-67
2023/08/02 04:33:06;;;;;;;4.65;2.03;;;;;;;17.18;100.00;95271.38;5016417;28;20240;-67
2023/08/02 04:35:33;;;;;;;3.60;1.27;;;;;;;17.33;100.00;95269.81;5016355;28;20204;-67
2023/08/02 04:37:59;;;;;;;2.13;1.25;;;;;;;17.45;100.00;95264.41;5015071;28;20202;-67
2023/08/02 04:40:26;;;;;;;2.92;1.48;;;;;;;17.48;100.00;95261.28;5016703;28;20209;-67
2023/08/02 04:42:53;;;;;;;5.65;1.52;;;;;;;17.43;100.00;95254.00;5016321;28;20214;-67
2023/08/02 04:45:20;;;;;;;2.85;1.30;;;;;;;17.43;100.00;95258.53;5016022;28;20198;-67
2023/08/02 04:47:48;;;;;;;2.30;1.48;;;;;;;17.83;100.00;95259.94;5015493;28;20589;-67
2023/08/02 04:50:14;;;;;;;3.60;1.42;;;;;;;17.73;100.00;95262.47;5015765;28;20205;-67
2023/08/02 04:52:41;;;;;;;2.60;1.65;;;;;;;17.78;100.00;95252.69;5015949;28;20232;-67
2023/08/02 04:55:08;;;;;;;3.65;1.67;;;;;;;18.05;100.00;95242.13;5015966;28;20217;-67
2023/08/02 04:57:35;;;;;;;5.85;1.73;;;;;;;17.95;100.00;95247.34;5015345;28;20224;-67
2023/08/02 05:00:01;;;;;;;4.55;1.95;;;;;;;17.92;100.00;95245.16;5019995;28;20213;-67
2023/08/02 05:02:33;;;;;;;6.78;1.85;;;;;;;18.01;100.00;95235.69;5019819;28;20228;-67
2023/08/02 05:05:01;;;;;;;2.38;1.75;;;;;;;17.99;100.00;95222.59;5019631;28;20202;-67
2023/08/02 05:07:28;;;;;;;3.88;1.75;;;;;;;17.77;100.00;95223.63;5018720;28;20248;-67
2023/08/02 05:09:54;;;;;;;2.42;1.10;;;;;;;17.87;100.00;95229.91;5019338;28;20203;-67
2023/08/02 05:12:21;;;;;;;2.40;1.20;;;;;;;18.05;100.00;95231.47;5019859;28;20709;-67
2023/08/02 05:14:47;;;;;;;3.00;1.70;;;;;;;18.17;100.00;95227.66;5019481;28;20198;-67
2023/08/02 05:17:14;;;;;;;4.22;2.05;;;;;;;18.26;100.00;95220.84;5018603;28;21329;-67
2023/08/02 05:19:40;;;;;;;5.82;2.35;;;;;;;18.27;100.00;95232.34;5020095;28;20206;-67
2023/08/02 05:22:08;;;;;;;3.78;2.05;;;;;;;18.64;100.00;95221.56;5019285;28;20222;-67
2023/08/02 05:24:34;;;;;;;2.38;1.50;;;;;;;18.54;100.00;95215.31;5018894;28;20221;-67
2023/08/02 05:27:01;;;;;;;4.20;1.98;;;;;;;18.48;100.00;95222.47;5018966;28;20218;-67
2023/08/02 05:29:27;;;;;;;3.67;2.20;;;;;;;18.51;100.00;95216.63;5019476;28;20202;-67
2023/08/02 05:31:54;;;;;;;4.95;1.45;;;;;;;18.44;100.00;95216.03;5019185;28;20222;-67
2023/08/02 05:34:20;;;;;;;2.95;1.45;;;;;;;18.46;100.00;95208.56;5018865;28;20702;-67
2023/08/02 05:36:47;;;;;;;10.93;2.08;;;;;;;18.51;100.00;95205.94;5019378;28;20202;-67
2023/08/02 05:39:15;;;;;;;3.20;1.65;;;;;;;18.81;100.00;95210.81;5018272;28;20206;-67
2023/08/02 05:41:41;;;;;;;6.28;2.05;;;;;;;18.65;100.00;95211.72;5018946;28;20710;-67
2023/08/02 05:44:08;;;;;;;3.75;1.83;;;;;;;18.57;100.00;95215.63;5019245;28;20204;-67
2023/08/02 05:46:34;;;;;;;3.17;1.85;;;;;;;18.71;100.00;95221.38;5019179;28;20206;-67
2023/08/02 05:49:01;;;;;;;3.88;2.10;;;;;;;18.66;100.00;95224.81;5017970;28;20745;-67
2023/08/02 05:51:27;;;;;;;3.63;1.98;;;;;;;18.81;100.00;95224.16;5019185;28;20222;-67
2023/08/02 05:53:54;;;;;;;4.90;2.42;;;;;;;18.78;100.00;95217.44;5018936;28;20267;-67
2023/08/02 05:56:22;;;;;;;7.18;1.90;;;;;;;19.08;100.00;95217.75;5018673;28;20263;-67
2023/08/02 05:58:48;;;;;;;3.47;1.50;;;;;;;18.86;100.00;95218.88;5018121;28;20205;-67
2023/08/02 06:01:15;;;;;;;8.18;2.20;;;;;;;18.55;100.00;95212.41;5018672;28;20226;-67
2023/08/02 06:03:41;;;;;;;12.80;2.55;;;;;;;18.69;100.00;95213.63;5018642;28;20545;-67
2023/08/02 06:06:08;;;;;;;6.53;2.13;;;;;;;18.84;100.00;95215.63;5018791;28;20213;-67
2023/08/02 06:08:34;;;;;;;4.60;2.10;;;;;;;18.96;100.00;95212.56;5018111;28;20206;-67
2023/08/02 06:11:01;;;;;;;6.00;2.08;;;;;;;18.90;100.00;95215.41;5017658;28;20236;-67
2023/08/02 06:13:29;;;;;;;4.70;2.10;;;;;;;19.11;100.00;95214.59;5018688;28;20222;-67
2023/08/02 06:15:56;;;;;;;2.33;1.50;;;;;;;18.96;100.00;95215.25;5019081;28;20217;-67
2023/08/02 06:18:23;;;;;;;6.47;2.50;;;;;;;18.92;100.00;95221.34;5017051;28;20212;-67
2023/08/02 06:20:49;;;;;;;5.07;2.10;;;;;;;19.01;100.00;95217.16;5018112;28;20210;-67
2023/08/02 06:23:15;;;;;;;4.60;2.03;;;;;;;19.08;100.00;95215.09;5018819;28;20197;-67
2023/08/02 06:25:42;;;;;;;3.88;1.70;;;;;;;19.12;100.00;95214.34;5018539;28;20198;-67
2023/08/02 06:28:09;;;;;;;3.53;1.23;;;;;;;19.18;100.00;95217.84;5017072;28;21165;-67
2023/08/02 06:30:36;;;;;;;3.40;2.03;;;;;;;19.55;100.00;95213.34;5018389;28;20194;-67
2023/08/02 06:33:03;;;;;;;3.60;1.75;;;;;;;19.31;100.00;95218.25;5018526;28;20391;-67
2023/08/02 06:35:29;;;;;;;5.43;2.58;;;;;;;19.38;100.00;95218.03;5018147;28;20202;-68
2023/08/02 06:37:56;;;;;;;3.00;2.13;;;;;;;19.46;100.00;95209.53;5017662;28;20669;-68
2023/08/02 06:40:22;;;;;;;2.78;1.52;;;;;;;19.43;100.00;95210.06;5018218;28;20221;-68
2023/08/02 06:42:49;;;;;;;2.55;1.50;;;;;;;19.42;100.00;95211.13;5017936;28;20443;-67
2023/08/02 06:45:16;;;;;;;2.67;1.58;;;;;;;19.53;100.00;95202.13;5017789;28;20210;-67
2023/08/02 06:47:43;;;;;;;5.78;1.77;;;;;;;19.69;100.00;95205.44;5017223;28;20201;-67
2023/08/02 06:50:11;;;;;;;4.10;1.88;;;;;;;19.60;100.00;95206.16;5017697;28;20222;-67
2023/08/02 06:52:37;;;;;;;4.25;1.55;;;;;;;19.48;100.00;95196.75;5017840;28;20226;-68
2023/08/02 06:55:04;;;;;;;1.38;1.27;;;;;;;19.57;100.00;95194.13;5017811;28;20236;-68
2023/08/02 06:57:31;;;;;;;3.25;1.42;;;;;;;19.43;100.00;95189.47;5016880;28;20202;-68
2023/08/02 06:59:58;;;;;;;3.75;1.55;;;;;;;19.60;100.00;95190.13;5017617;28;20256;-68
2023/08/02 07:02:25;;;;;;;5.53;1.33;;;;;;;19.64;100.00;95185.91;5017598;28;20217;-68
2023/08/02 07:04:52;;;;;;;2.63;1.17;;;;;;;19.62;100.00;95178.13;5017990;28;20202;-68
2023/08/02 07:07:19;;;;;;;3.30;1.77;;;;;;;19.36;100.00;95177.41;5016254;28;20202;-67
2023/08/02 07:09:48;;;;;;;2.42;1.20;;;;;;;19.67;100.00;95178.16;5016570;28;20792;-67
2023/08/02 07:12:15;;;;;;;3.67;1.00;;;;;;;19.59;100.00;95183.19;5014617;28;20966;-67
2023/08/02 07:14:41;;;;;;;2.63;1.35;;;;;;;19.57;100.00;95180.75;5015893;28;20248;-67
2023/08/02 07:17:08;;;;;;;1.83;1.13;;;;;;;19.57;100.00;95163.94;5015231;28;20280;-68
2023/08/02 07:19:34;;;;;;;1.58;0.85;;;;;;;19.65;100.00;95161.59;5015929;28;20244;-67
2023/08/02 07:22:02;;;;;;;2.15;1.23;;;;;;;19.82;100.00;95158.75;5014820;28;20276;-67
2023/08/02 07:24:29;;;;;;;1.88;1.05;;;;;;;19.77;100.00;95148.81;5016030;28;20205;-67
2023/08/02 07:26:56;;;;;;;2.83;1.30;;;;;;;20.05;100.00;95150.31;5014903;28;20204;-67
2023/08/02 07:29:22;;;;;;;2.20;1.05;;;;;;;20.14;100.00;95146.06;5015168;28;20202;-67
2023/08/02 07:31:49;;;;;;;3.70;1.00;;;;;;;20.04;100.00;95148.72;5015329;28;20217;-67
2023/08/02 07:34:16;;;;;;;1.70;1.00;;;;;;;19.89;100.00;95146.72;5014007;28;20236;-67
2023/08/02 07:36:42;;;;;;;1.85;0.85;;;;;;;19.92;100.00;95140.09;5013627;28;21290;-68
2023/08/02 07:39:10;;;;;;;2.22;1.10;;;;;;;20.21;100.00;95134.06;5014228;28;20592;-68
2023/08/02 07:41:36;;;;;;;1.38;0.98;;;;;;;19.92;100.00;95134.75;5015615;28;20229;-67
2023/08/02 07:44:03;;;;;;;2.25;1.08;;;;;;;20.09;100.00;95136.16;5014686;28;20693;-67
2023/08/02 07:46:30;;;;;;;1.33;0.75;;;;;;;19.40;100.00;95131.22;5015214;28;20235;-67
2023/08/02 07:48:57;;;;;;;5.75;0.75;;;;;;;19.79;100.00;95125.31;5013808;28;20202;-67
2023/08/02 07:51:23;;;;;;;1.33;0.80;;;;;;;19.79;100.00;95119.16;5014390;28;20512;-67
2023/08/02 07:53:50;;;;;;;2.35;1.20;;;;;;;19.92;100.00;95129.41;5014808;28;20226;-67
2023/08/02 07:56:18;;;;;;;1.42;1.10;;;;;;;20.42;100.00;95125.06;5014909;28;20205;-68
2023/08/02 07:58:45;;;;;;;1.23;0.82;;;;;;;20.10;100.00;95124.41;5013873;28;20198;-67
2023/08/02 08:01:11;;;;;;;1.75;1.02;;;;;;;20.36;100.00;95128.78;5014496;28;20278;-68
2023/08/02 08:03:38;;;;;;;1.02;0.75;;;;;;;20.09;100.00;95128.16;5014221;28;20194;-67
2023/08/02 08:06:12;;;;;;;2.95;1.25;;;;;;;20.70;100.00;95113.88;5013485;28;20213;-67
2023/08/02 08:08:39;;;;;;;1.55;1.10;;;;;;;20.27;100.00;95111.63;5013882;28;20558;-67
2023/08/02 08:11:05;;;;;;;2.85;0.95;;;;;;;20.59;100.00;95109.56;5013946;28;20702;-68
2023/08/02 08:13:33;;;;;;;6.13;1.35;;;;;;;20.70;100.00;95103.94;5013704;28;20202;-68
2023/08/02 08:16:00;;;;;;;1.58;0.90;;;;;;;20.62;100.00;95103.66;5014177;28;20205;-68
2023/08/02 08:18:27;;;;;;;1.70;1.02;;;;;;;20.53;100.00;95110.59;5013261;28;20212;-68
2023/08/02 08:20:54;;;;;;;2.95;0.75;;;;;;;20.55;100.00;95101.25;5013833;28;20434;-68
2023/08/02 08:23:20;;;;;;;3.70;1.30;;;;;;;20.53;100.00;95103.41;5013332;28;20205;-68
2023/08/02 08:25:47;;;;;;;1.65;0.88;;;;;;;20.55;100.00;95106.59;5013788;28;20671;-68
2023/08/02 08:28:13;;;;;;;4.63;1.08;;;;;;;19.89;100.00;95103.94;5012813;28;20206;-68
2023/08/02 08:30:41;;;;;;;1.52;0.90;;;;;;;20.17;100.00;95100.09;5013984;28;20481;-68
2023/08/02 08:33:07;;;;;;;0.98;0.68;;;;;;;20.03;100.00;95098.97;5014049;28;21084;-68
2023/08/02 08:35:35;;;;;;;0.98;0.70;;;;;;;20.02;100.00;95098.19;5017054;28;20221;-68
2023/08/02 08:38:02;;;;;;;3.38;1.00;;;;;;;20.32;100.00;95092.91;5017934;28;20213;-68
2023/08/02 08:40:29;;;;;;;1.77;0.93;;;;;;;20.15;100.00;95096.88;5017655;28;21147;-68
2023/08/02 08:42:57;;;;;;;2.97;1.30;;;;;;;20.08;100.00;95088.28;5017280;28;20232;-68
2023/08/02 08:45:25;;;;;;;2.25;1.13;;;;;;;20.11;100.00;95079.72;5017675;28;20202;-68
2023/08/02 08:47:53;;;;;;;1.85;0.98;;;;;;;19.88;100.00;95075.63;5016911;28;20194;-68
2023/08/02 08:50:21;;;;;;;2.55;1.25;;;;;;;20.31;100.00;95070.72;5016885;28;20201;-68
2023/08/02 08:52:50;;;;;;;5.00;1.20;;;;;;;20.65;100.00;95068.34;5016677;28;20608;-68
2023/08/02 08:55:18;;;;;;;2.28;1.35;;;;;;;20.85;100.00;95067.31;5016949;28;20315;-68
2023/08/02 08:57:46;;;;;;;4.25;1.17;;;;;;;20.32;100.00;95064.28;5017588;28;20201;-68
2023/08/02 09:00:14;;;;;;;2.15;1.30;;;;;;;20.74;100.00;95056.06;5016902;28;20227;-68
2023/08/02 09:02:43;;;;;;;2.90;1.48;;;;;;;20.65;100.00;95054.97;5018115;28;20226;-68
2023/08/02 09:05:11;;;;;;;1.27;0.90;;;;;;;20.52;100.00;95060.81;5017576;28;20280;-68
2023/08/02 09:07:38;;;;;;;2.90;1.45;;;;;;;20.01;100.00;95069.00;5017633;28;20198;-68
2023/08/02 09:10:05;;;;;;;1.02;0.70;;;;;;;20.26;100.00;95061.84;5017637;28;20209;-68
2023/08/02 09:12:43;;;;;;;2.35;1.25;;;;;;;20.59;100.00;95050.66;5017597;28;21095;-68
2023/08/02 09:15:10;;;;;;;1.50;0.90;;;;;;;20.07;100.00;95062.59;5017276;28;20725;-68
2023/08/02 09:17:46;;;;;;;0.82;0.77;;;;;;;20.52;100.00;95052.78;5015895;28;20218;-68
2023/08/02 09:20:15;;;;;;;3.90;1.25;;;;;;;20.44;100.00;95053.31;5017242;28;20255;-68
2023/08/02 09:22:42;;;;;;;2.17;1.23;;;;;;;19.98;100.00;95062.31;5017502;28;20886;-68
2023/08/02 09:25:21;;;;;;;2.42;1.20;;;;;;;20.31;100.00;95051.16;5016928;28;20220;-67
2023/08/02 09:27:48;;;;;;;2.03;1.15;;;;;;;20.18;100.00;95039.09;5016852;28;20317;-68
2023/08/02 09:30:23;;;;;;;2.63;0.95;;;;;;;20.26;100.00;95043.13;5017727;28;20210;-68
2023/08/02 09:32:59;;;;;;;2.92;1.60;;;;;;;20.46;100.00;95040.50;5017173;28;20991;-68
2023/08/02 09:35:27;;;;;;;6.75;2.13;;;;;;;20.52;100.00;95036.72;5016697;28;20232;-68
2023/08/02 09:37:54;;;;;;;4.00;1.52;;;;;;;20.31;100.00;95033.25;5017000;28;20198;-68
2023/08/02 09:40:33;;;;;;;2.28;1.05;;;;;;;21.00;100.00;95031.66;5016646;28;20194;-68
2023/08/02 09:43:01;;;;;;;4.03;1.80;;;;;;;21.01;100.00;95026.03;5017200;28;20291;-68
2023/08/02 09:45:32;;;;;;;7.00;2.03;;;;;;;21.13;100.00;95031.94;5017210;28;20194;-68
2023/08/02 09:47:58;;;;;;;1.73;1.08;;;;;;;20.94;100.00;95016.69;5016097;28;20216;-68
2023/08/02 09:50:27;;;;;;;4.50;1.17;;;;;;;20.98;100.00;95007.84;5017522;28;21416;-68
2023/08/02 09:52:54;;;;;;;2.00;1.33;;;;;;;21.25;100.00;95002.16;5018092;28;20217;-67
2023/08/02 09:55:21;;;;;;;2.50;1.00;;;;;;;20.95;100.00;95000.34;5017577;28;20228;-67
2023/08/02 09:57:49;;;;;;;1.27;0.80;;;;;;;20.97;100.00;95006.22;5016597;28;20743;-68
2023/08/02 10:00:18;;;;;;;2.30;1.13;;;;;;;21.19;100.00;94998.69;5018131;28;20209;-68
2023/08/02 10:02:46;;;;;;;0.85;0.57;;;;;;;21.31;100.00;94988.47;5017630;28;20222;-68
2023/08/02 10:05:14;;;;;;;2.15;1.02;;;;;;;21.32;100.00;94982.06;5017471;28;20198;-68
2023/08/02 10:07:46;;;;;;;1.55;0.73;;;;;;;21.45;100.00;94982.25;5017339;28;20198;-68
2023/08/02 10:10:17;;;;;;;1.27;0.80;;;;;;;21.16;100.00;94977.81;5018260;28;20674;-68
2023/08/02 10:12:49;;;;;;;2.30;1.00;;;;;;;21.41;100.00;94971.56;5017281;28;20736;-68
2023/08/02 10:15:15;;;;;;;3.35;1.30;;;;;;;21.09;100.00;94966.59;5017157;28;20287;-68
2023/08/02 10:17:43;;;;;;;1.67;0.90;;;;;;;20.85;100.00;94964.75;5017052;28;20202;-68
2023/08/02 10:20:12;;;;;;;4.60;1.23;;;;;;;21.05;100.00;94952.13;5017694;28;20202;-68
2023/08/02 10:22:40;;;;;;;7.13;1.25;;;;;;;21.10;100.00;94948.63;5017576;28;20590;-68
2023/08/02 10:25:10;;;;;;;1.85;1.00;;;;;;;21.16;100.00;94940.28;5018251;28;20212;-68
2023/08/02 10:27:37;;;;;;;2.63;1.35;;;;;;;20.86;100.00;94940.38;5017115;28;20202;-68
2023/08/02 10:30:05;;;;;;;1.67;0.90;;;;;;;21.11;100.00;94945.66;5016955;28;20288;-67
2023/08/02 10:32:31;;;;;;;1.40;0.88;;;;;;;21.26;100.00;94936.78;5018164;28;20646;-67
2023/08/02 10:34:59;;;;;;;4.25;0.80;;;;;;;21.53;100.00;94941.50;5017977;28;20238;-68
2023/08/02 10:37:51;;;;;;;2.75;1.33;;;;;;;22.25;100.00;94926.31;5016319;28;20198;-68
2023/08/02 10:40:21;;;;;;;1.25;0.77;;;;;;;22.35;100.00;94938.88;5017491;28;20205;-68
2023/08/02 10:43:02;;;;;;;3.38;1.08;;;;;;;22.59;100.00;94924.44;5017353;28;20338;-68
2023/08/02 10:45:29;;;;;;;0.75;0.75;;;;;;;22.34;100.00;94915.81;5017898;28;20198;-68
2023/08/02 10:48:23;;;;;;;2.65;1.13;;;;;;;22.91;100.00;94913.94;5017121;28;20206;-67
2023/08/02 10:50:50;;;;;;;1.42;0.80;;;;;;;22.72;100.00;94913.03;5017564;28;20202;-67
2023/08/02 10:53:16;;;;;;;1.23;0.70;;;;;;;22.80;100.00;94913.25;5017528;28;20206;-67
2023/08/02 10:56:04;;;;;;;2.80;1.20;;;;;;;23.41;100.00;94890.81;5016651;28;20217;-68
2023/08/02 10:58:49;;;;;;;2.78;1.30;;;;;;;23.32;100.00;94889.84;5016765;28;20210;-67
2023/08/02 11:01:15;;;;;;;1.70;1.00;;;;;;;22.92;100.00;94880.63;5016955;28;20357;-68
2023/08/02 11:03:42;;;;;;;2.42;1.02;;;;;;;23.32;100.00;94881.00;5017928;28;20312;-68
2023/08/02 11:06:23;;;;;;;5.38;1.25;;;;;;;23.81;100.00;94876.84;5017412;28;20212;-68
2023/08/02 11:08:50;;;;;;;1.95;0.95;;;;;;;23.18;100.00;94884.63;5011944;28;20216;-68
2023/08/02 11:11:29;;;;;;;1.23;0.80;;;;;;;23.88;100.00;94866.53;5016232;28;20237;-67
2023/08/02 11:13:55;;;;;;;1.63;0.90;;;;;;;24.21;100.00;94866.28;5016783;28;20554;-68
2023/08/02 11:16:23;;;;;;;0.77;0.60;;;;;;;24.72;100.00;94864.34;5015916;28;20218;-67
2023/08/02 11:18:50;;;;;;;1.98;0.80;;;;;;;24.37;100.00;94861.44;5014336;28;20208;-68
2023/08/02 11:21:16;;;;;;;1.77;1.00;;;;;;;24.25;100.00;94853.00;5016484;28;20233;-68
2023/08/02 11:23:43;;;;;;;1.42;0.90;;;;;;;24.11;100.00;94857.56;5015845;28;20198;-68
2023/08/02 11:26:11;;;;;;;1.40;0.73;;;;;;;24.62;100.00;94857.25;5015407;28;20565;-68
2023/08/02 11:28:41;;;;;;;2.67;1.05;;;;;;;25.04;100.00;94857.00;5014891;28;20218;-68